Flight Track Log - Related Links

Times and Time Zones

All times are in EDT time to prevent confusion due to time zone crossing. See the UAL252 flight status page for this flight to view local times or setup timezone preferences in your user account.

Time Position Orientation Groundspeed Altitude Reporting Facility
EDT Latitude Longitude Course Direction KTS MPH feet Rate Location/Type
Mon 07:05:21 PM 33.6333 -117.8833 204° Southwest 135 155 2,200  Level Southern California TRACON
Mon 07:06:07 PM 33.6181 -117.8917 204° Southwest 125 144 3,100 1,167 Climbing Los Angeles Center
Mon 07:07:09 PM 33.5594 -117.8900 179° South 190 219 4,300 1,645 Climbing Los Angeles Center
Mon 07:08:11 PM 33.5586 -117.8033 91° East 269 310 6,500 2,613 Climbing Los Angeles Center
Mon 07:09:13 PM 33.5669 -117.7061 84° East 290 334 9,700 2,129 Climbing Los Angeles Center
Mon 07:10:15 PM 33.5736 -117.5972 86° East 323 372 10,900 1,258 Climbing Los Angeles Center
Mon 07:11:17 PM 33.5844 -117.4581 85° East 399 459 12,300 1,985 Climbing Los Angeles Center
Mon 07:12:31 PM 33.5597 -117.3261 103° East 440 506 15,400 2,424 Climbing Los Angeles Center
Mon 07:14:00 PM 33.5833 -117.1255 90° East  Level FlightAware Approximate
Mon 07:14:35 PM 33.5764 -116.9956 90° East 449 517 20,300  Level Los Angeles Center
Mon 07:15:37 PM 33.6278 -116.8669 64° Northeast 456 525 21,400 1,355 Climbing Los Angeles Center
Mon 07:16:39 PM 33.6889 -116.7178 64° Northeast 467 537 23,100 1,403 Climbing Los Angeles Center
Mon 07:17:41 PM 33.7511 -116.5772 62° Northeast 474 545 24,300 1,065 Climbing Los Angeles Center
Mon 07:18:43 PM 33.8186 -116.4367 60° Northeast 483 556 25,300 1,258 Climbing Los Angeles Center
Mon 07:19:45 PM 33.8853 -116.2964 60° Northeast 482 555 26,900 1,403 Climbing Los Angeles Center
Mon 07:20:47 PM 33.9503 -116.1589 60° Northeast 474 545 28,200 1,500 Climbing Los Angeles Center
Mon 07:21:49 PM 34.0283 -115.9958 60° Northeast 467 537 30,000 1,500 Climbing Los Angeles Center
Mon 07:22:51 PM 34.0919 -115.8608 60° Northeast 464 534 31,300 1,113 Climbing Los Angeles Center
Mon 07:23:53 PM 34.1556 -115.7247 61° Northeast 465 535 32,300 1,210 Climbing Los Angeles Center
Mon 07:24:55 PM 34.2189 -115.5883 61° Northeast 466 536 33,800 1,403 Climbing Los Angeles Center
Mon 07:25:57 PM 34.2811 -115.4575 60° Northeast 451 519 35,200 1,210 Climbing Los Angeles Center
Mon 07:26:59 PM 34.3417 -115.3272 61° Northeast 447 514 36,300 823 Climbing Los Angeles Center
Mon 07:28:01 PM 34.4142 -115.1700 61° Northeast 446 513 36,900 290 Climbing Los Angeles Center
Mon 07:29:03 PM 34.4742 -115.0389 61° Northeast 447 514 36,900  Level Los Angeles Center
Mon 07:30:05 PM 34.5342 -114.9094 61° Northeast 441 507 36,900 48 Level Los Angeles Center
Mon 07:31:07 PM 34.5953 -114.7797 60° Northeast 442 509 37,000 49 Climbing Los Angeles Center
Mon 07:32:08 PM 34.6614 -114.6328 61° Northeast 449 517 37,000  Level Los Angeles Center
Mon 07:33:10 PM 34.7214 -114.5006 61° Northeast 449 517 37,000  Level Los Angeles Center
Mon 07:34:12 PM 34.7692 -114.3956 61° Northeast 445 512 37,000  Level Los Angeles Center
Mon 07:35:27 PM 34.8531 -114.2111 61° Northeast 444 511 37,000  Level Los Angeles Center
Mon 07:36:28 PM 34.8994 -114.1058 62° Northeast 443 510 37,000  Level Los Angeles Center
Mon 07:37:30 PM 34.9822 -113.9211 61° Northeast 443 510 37,000  Level Los Angeles Center
Mon 07:38:32 PM 35.0325 -113.8103 61° Northeast 447 514 37,000  Level Los Angeles Center
Mon 07:39:34 PM 35.1031 -113.6508 62° Northeast 447 514 37,000  Level Los Angeles Center
Mon 07:40:36 PM 35.1617 -113.5189 61° Northeast 445 512 37,000  Level Los Angeles Center
Mon 07:41:38 PM 35.2200 -113.3869 62° Northeast 444 511 37,000  Level Los Angeles Center
Mon 07:42:40 PM 35.2769 -113.2578 62° Northeast 442 509 37,000  Level Los Angeles Center
Mon 07:43:42 PM 35.3333 -113.1258 62° Northeast 440 506 37,000  Level Los Angeles Center
Mon 07:44:44 PM 35.4050 -112.9656 61° Northeast 446 513 37,000  Level Los Angeles Center
Mon 07:45:46 PM 35.4633 -112.8286 62° Northeast 443 510 37,000  Level Los Angeles Center
Mon 07:46:48 PM 35.5200 -112.6969 62° Northeast 439 505 37,000  Level Los Angeles Center
Mon 07:47:50 PM 35.5800 -112.5556 62° Northeast 438 504 37,000  Level Los Angeles Center
Mon 07:48:52 PM 35.6361 -112.4231 62° Northeast 440 506 37,000  Level Los Angeles Center
Mon 07:49:54 PM 35.6939 -112.2894 62° Northeast 443 510 37,000  Level Los Angeles Center
Mon 07:50:56 PM 35.7511 -112.1550 62° Northeast 444 511 37,000  Level Los Angeles Center
Mon 07:51:58 PM 35.8072 -112.0219 62° Northeast 442 509 37,000  Level Los Angeles Center
Mon 07:53:00 PM 35.8625 -111.8897 63° Northeast 438 504 37,000  Level Los Angeles Center
Mon 07:53:31 PM 35.8928 -111.8189 62° Northeast 438 504 37,000  Level Denver Center
Mon 07:54:32 PM 35.9592 -111.6592 63° Northeast 437 503 37,000  Level Denver Center
Mon 07:55:34 PM 36.0147 -111.5261 63° Northeast 438 504 37,000  Level Denver Center
Mon 07:56:36 PM 36.0592 -111.4189 63° Northeast 438 504 37,000  Level Denver Center
Mon 07:57:38 PM 36.1294 -111.2606 61° Northeast 438 504 37,000  Level Denver Center
Mon 07:58:40 PM 36.1936 -111.1311 58° Northeast 442 509 37,000  Level Denver Center
Mon 07:59:54 PM 36.2556 -111.0028 59° Northeast 438 504 37,000  Level Denver Center
Mon 08:00:56 PM 36.3408 -110.8236 59° Northeast 434 499 37,000  Level Denver Center
Mon 08:01:58 PM 36.4028 -110.6953 59° Northeast 434 499 37,000  Level Denver Center
Mon 08:02:59 PM 36.4642 -110.5647 60° Northeast 437 503 37,000  Level Denver Center
Mon 08:04:01 PM 36.5239 -110.4361 60° Northeast 435 501 37,000  Level Denver Center
Mon 08:05:03 PM 36.5858 -110.3072 59° Northeast 434 499 37,000  Level Denver Center
Mon 08:06:05 PM 36.6461 -110.1778 60° Northeast 432 497 37,000  Level Denver Center
Mon 08:07:07 PM 36.7108 -110.0403 60° Northeast 437 503 37,000  Level Denver Center
Mon 08:08:08 PM 36.7786 -109.8944 60° Northeast 434 499 37,000  Level Denver Center
Mon 08:09:10 PM 36.8372 -109.7683 60° Northeast 436 502 37,000  Level Denver Center
Mon 08:10:12 PM 36.9053 -109.6194 60° Northeast 439 505 37,000  Level Denver Center
Mon 08:11:26 PM 36.9747 -109.4711 60° Northeast 441 507 37,000  Level Denver Center
Mon 08:12:28 PM 37.0425 -109.3219 60° Northeast 441 507 37,000  Level Denver Center
Mon 08:13:29 PM 37.1008 -109.1942 60° Northeast 439 505 37,000  Level Denver Center
Mon 08:14:31 PM 37.1681 -109.0453 60° Northeast 438 504 37,000  Level Denver Center
Mon 08:15:33 PM 37.2261 -108.9169 60° Northeast 438 504 37,000  Level Denver Center
Mon 08:16:35 PM 37.2944 -108.7658 60° Northeast 444 511 37,000  Level Denver Center
Mon 08:17:36 PM 37.3525 -108.6358 61° Northeast 444 511 37,000  Level Denver Center
Mon 08:18:38 PM 37.4111 -108.5061 60° Northeast 444 511 37,000 -48 Level Denver Center
Mon 08:19:40 PM 37.4772 -108.3528 61° Northeast 446 513 36,900  Descending Denver Center
Mon 08:20:42 PM 37.5333 -108.2247 61° Northeast 439 505 37,000 49 Climbing Denver Center
Mon 08:21:43 PM 37.5983 -108.0781 61° Northeast 433 498 37,000  Level Denver Center
Mon 08:22:45 PM 37.6556 -107.9500 61° Northeast 435 501 37,000  Level Denver Center
Mon 08:23:47 PM 37.7214 -107.7986 61° Northeast 439 505 37,000  Level Denver Center
Mon 08:24:49 PM 37.7769 -107.6692 61° Northeast 438 504 37,000 -48 Level Denver Center
Mon 08:25:51 PM 37.8331 -107.5400 61° Northeast 438 504 36,900 -48 Descending Denver Center
Mon 08:26:53 PM 37.8972 -107.3903 61° Northeast 432 497 36,900 49 Level Denver Center
Mon 08:27:54 PM 37.9528 -107.2611 61° Northeast 436 502 37,000 -439 Climbing Denver Center
Mon 08:28:56 PM 38.0142 -107.1178 61° Northeast 437 503 36,000 -1,016 Descending Denver Center
Mon 08:29:58 PM 38.0794 -106.9650 61° Northeast 443 510 34,900 -968 Descending Denver Center
Mon 08:31:00 PM 38.1347 -106.8325 62° Northeast 444 511 34,000 -919 Descending Denver Center
Mon 08:32:02 PM 38.1919 -106.6994 61° Northeast 449 517 33,000 -927 Descending Denver Center
Mon 08:33:03 PM 38.2589 -106.5719 56° Northeast 455 524 32,100 -968 Descending Denver Center
Mon 08:34:06 PM 38.3564 -106.4456 45° Northeast 454 522 31,000 -532 Descending Denver Center
Mon 08:35:07 PM 38.4481 -106.3303 45° Northeast 461 531 31,000 -293 Level Denver Center
Mon 08:36:09 PM 38.5394 -106.2158 44° Northeast 462 532 30,400 -823 Descending Denver Center
Mon 08:37:11 PM 38.6389 -106.0906 45° Northeast 453 521 29,300 -1,016 Descending Denver Center
Mon 08:38:13 PM 38.7278 -105.9792 44° Northeast 445 512 28,300 -968 Descending Denver Center
Mon 08:39:15 PM 38.8153 -105.8686 45° Northeast 439 505 27,300 -1,366 Descending Denver Center
Mon 08:40:16 PM 38.9103 -105.7481 45° Northeast 438 504 25,500 -1,659 Descending Denver Center
Mon 08:41:18 PM 38.9906 -105.6461 45° Northeast 426 490 23,900 -1,935 Descending Denver Center
Mon 08:42:20 PM 39.0814 -105.5308 45° Northeast 412 474 21,500 -1,984 Descending Denver Center
Mon 08:43:22 PM 39.1558 -105.4358 45° Northeast 389 448 19,800 -1,500 Descending Denver Center
Mon 08:44:24 PM 39.2328 -105.3378 45° Northeast 362 417 18,400 -1,024 Descending Denver Center
Mon 08:45:25 PM 39.2711 -105.2297 65° Northeast 336 387 17,700 -976 Descending Denver Center
Mon 08:46:27 PM 39.2936 -105.1167 76° East 306 352 16,400 -1,065 Descending Denver Center
Mon 08:47:29 PM 39.3125 -105.0131 77° East 299 344 15,500 -1,161 Descending Denver Center
Mon 08:48:31 PM 39.3303 -104.9167 77° East 279 321 14,000 -1,065 Descending Denver Center
Mon 08:49:33 PM 39.3586 -104.8119 71° East 289 333 13,300 -927 Descending Denver Center
Mon 08:50:34 PM 39.4083 -104.7367 49° Northeast 277 319 12,100 -1,024 Descending Denver Center
Mon 08:51:36 PM 39.4731 -104.6794 34° Northeast 266 306 11,200 -726 Descending Denver Center
Mon 08:52:38 PM 39.5428 -104.6619 11° North 255 293 10,600 -484 Descending Denver Center
Mon 08:53:40 PM 39.6128 -104.6633 359° North 253 291 10,200 -968 Descending Denver Center
Mon 08:54:42 PM 39.6733 -104.6631 360° North 208 239 8,600 -1,548 Descending Denver Center

Login

Don't have an account? Register now (free) for customized features, flight alerts, and more!